createdAt,value
2018-07-09T00:00:12.779Z,1015.44
2018-07-09T00:02:05.582Z,1015.44
2018-07-09T00:03:05.550Z,1015.43
2018-07-09T00:04:58.507Z,1015.40
2018-07-09T00:05:58.393Z,1015.40
2018-07-09T00:07:51.174Z,1015.43
2018-07-09T00:08:51.133Z,1015.45
2018-07-09T00:10:44.503Z,1015.47
2018-07-09T00:11:43.984Z,1015.45
2018-07-09T00:13:36.856Z,1015.46
2018-07-09T00:14:36.828Z,1015.50
2018-07-09T00:16:29.750Z,1015.49
2018-07-09T00:17:29.555Z,1015.47
2018-07-09T00:19:22.477Z,1015.49
2018-07-09T00:20:22.364Z,1015.50
2018-07-09T00:22:15.290Z,1015.51
2018-07-09T00:23:15.229Z,1015.50
2018-07-09T00:25:08.191Z,1015.57
2018-07-09T00:26:08.050Z,1015.53
2018-07-09T00:28:01.067Z,1015.53
2018-07-09T00:29:00.864Z,1015.53
2018-07-09T00:30:54.051Z,1015.54
2018-07-09T00:31:53.778Z,1015.49
2018-07-09T00:33:46.638Z,1015.49
2018-07-09T00:34:46.626Z,1015.44
2018-07-09T00:36:39.487Z,1015.46
2018-07-09T00:37:39.357Z,1015.50
2018-07-09T00:39:32.140Z,1015.48
2018-07-09T00:40:32.091Z,1015.48
2018-07-09T00:42:25.023Z,1015.48
2018-07-09T00:43:24.866Z,1015.46
2018-07-09T00:45:17.800Z,1015.45
2018-07-09T00:46:17.650Z,1015.47
2018-07-09T00:48:10.529Z,1015.45
2018-07-09T00:49:10.471Z,1015.43
2018-07-09T00:51:03.331Z,1015.40
2018-07-09T00:52:03.156Z,1015.42
2018-07-09T00:53:56.057Z,1015.44
2018-07-09T00:54:55.977Z,1015.40
2018-07-09T00:56:48.952Z,1015.43
2018-07-09T00:57:48.775Z,1015.42
2018-07-09T00:59:41.637Z,1015.41
2018-07-09T01:00:41.703Z,1015.45
2018-07-09T01:02:34.635Z,1015.48
2018-07-09T01:03:34.424Z,1015.42
2018-07-09T01:05:27.442Z,1015.44
2018-07-09T01:06:27.222Z,1015.46
2018-07-09T01:08:19.948Z,1015.48
2018-07-09T01:09:19.875Z,1015.46
2018-07-09T01:11:12.739Z,1015.51
2018-07-09T01:12:12.597Z,1015.48
2018-07-09T01:14:05.410Z,1015.42
2018-07-09T01:15:05.309Z,1015.39
2018-07-09T01:16:58.081Z,1015.38
2018-07-09T01:17:58.015Z,1015.42
2018-07-09T01:19:50.803Z,1015.42
2018-07-09T01:20:50.735Z,1015.38
2018-07-09T01:22:43.536Z,1015.38
2018-07-09T01:23:43.472Z,1015.36
2018-07-09T01:25:36.261Z,1015.33
2018-07-09T01:26:36.187Z,1015.36
2018-07-09T01:28:28.961Z,1015.36
2018-07-09T01:29:28.899Z,1015.35
2018-07-09T01:31:21.690Z,1015.36
2018-07-09T01:32:21.633Z,1015.36
2018-07-09T01:34:14.433Z,1015.35
2018-07-09T01:35:14.366Z,1015.34
2018-07-09T01:37:07.171Z,1015.38
2018-07-09T01:38:07.095Z,1015.39
2018-07-09T01:39:59.886Z,1015.40
2018-07-09T01:40:59.807Z,1015.37
2018-07-09T01:42:52.583Z,1015.41
2018-07-09T01:43:52.514Z,1015.37
2018-07-09T01:45:45.323Z,1015.31
2018-07-09T01:46:45.238Z,1015.31
2018-07-09T01:48:38.017Z,1015.29
2018-07-09T01:49:38.020Z,1015.31
2018-07-09T01:51:30.765Z,1015.30
2018-07-09T01:52:30.684Z,1015.26
2018-07-09T01:54:23.450Z,1015.28
2018-07-09T01:55:23.388Z,1015.29
2018-07-09T01:57:16.186Z,1015.31
2018-07-09T01:58:16.106Z,1015.28
2018-07-09T02:00:08.900Z,1015.26
2018-07-09T02:01:08.834Z,1015.27
2018-07-09T02:03:01.631Z,1015.28
2018-07-09T02:04:01.556Z,1015.25
2018-07-09T02:05:54.340Z,1015.30
2018-07-09T02:06:54.275Z,1015.24
2018-07-09T02:08:47.063Z,1015.31
2018-07-09T02:09:46.987Z,1015.28
2018-07-09T02:11:39.804Z,1015.33
2018-07-09T02:12:39.718Z,1015.31
2018-07-09T02:14:32.504Z,1015.33
2018-07-09T02:15:32.437Z,1015.32
2018-07-09T02:17:25.211Z,1015.30
2018-07-09T02:18:25.140Z,1015.27
2018-07-09T02:20:17.924Z,1015.27
2018-07-09T02:21:17.866Z,1015.22
2018-07-09T02:23:10.650Z,1015.26
2018-07-09T02:24:10.567Z,1015.24
2018-07-09T02:26:03.337Z,1015.22
2018-07-09T02:27:03.283Z,1015.25
2018-07-09T02:28:56.069Z,1015.21
2018-07-09T02:29:55.995Z,1015.22
2018-07-09T02:31:48.990Z,1015.24
2018-07-09T02:32:49.018Z,1015.24
2018-07-09T02:34:41.633Z,1015.19
2018-07-09T02:35:41.626Z,1015.22
2018-07-09T02:37:34.743Z,1015.22
2018-07-09T02:38:34.311Z,1015.21
2018-07-09T02:40:27.110Z,1015.22
2018-07-09T02:41:27.017Z,1015.22
2018-07-09T02:43:19.799Z,1015.20
2018-07-09T02:44:19.733Z,1015.17
2018-07-09T02:46:12.527Z,1015.10
2018-07-09T02:47:12.462Z,1015.16
2018-07-09T02:49:05.252Z,1015.15
2018-07-09T02:50:05.161Z,1015.17
2018-07-09T02:51:57.929Z,1015.14
2018-07-09T02:52:57.863Z,1015.11
2018-07-09T02:54:50.651Z,1015.13
2018-07-09T02:55:50.578Z,1015.17
2018-07-09T02:57:43.378Z,1015.14
2018-07-09T02:58:43.299Z,1015.17
2018-07-09T03:00:36.080Z,1015.20
2018-07-09T03:01:36.007Z,1015.20
2018-07-09T03:03:28.832Z,1015.24
2018-07-09T03:04:28.752Z,1015.21
2018-07-09T03:06:21.537Z,1015.18
2018-07-09T03:07:21.477Z,1015.21
2018-07-09T03:09:14.248Z,1015.16
2018-07-09T03:10:14.182Z,1015.16
2018-07-09T03:12:06.977Z,1015.13
2018-07-09T03:13:06.904Z,1015.17
2018-07-09T03:14:59.810Z,1015.17
2018-07-09T03:15:59.693Z,1015.13
2018-07-09T03:17:52.380Z,1015.11
2018-07-09T03:18:52.308Z,1015.16
2018-07-09T03:20:45.103Z,1015.17
2018-07-09T03:21:45.020Z,1015.13
2018-07-09T03:23:37.789Z,1015.17
2018-07-09T03:24:37.719Z,1015.21
2018-07-09T03:26:30.500Z,1015.22
2018-07-09T03:27:30.442Z,1015.23
2018-07-09T03:29:23.193Z,1015.20
2018-07-09T03:30:23.138Z,1015.25
2018-07-09T03:32:15.934Z,1015.23
2018-07-09T03:33:15.865Z,1015.20
2018-07-09T03:35:08.626Z,1015.23
2018-07-09T03:36:08.591Z,1015.20
2018-07-09T03:38:01.381Z,1015.21
2018-07-09T03:39:01.291Z,1015.19
2018-07-09T03:40:54.085Z,1015.21
2018-07-09T03:41:54.007Z,1015.17
2018-07-09T03:43:46.817Z,1015.14
2018-07-09T03:44:46.751Z,1015.13
2018-07-09T03:46:39.547Z,1015.14
2018-07-09T03:47:39.456Z,1015.17
2018-07-09T03:49:32.235Z,1015.14
2018-07-09T03:50:32.183Z,1015.13
2018-07-09T03:52:24.966Z,1015.17
2018-07-09T03:53:24.908Z,1015.13
2018-07-09T03:55:17.658Z,1015.13
2018-07-09T03:56:17.596Z,1015.13
2018-07-09T03:58:10.378Z,1015.11
2018-07-09T03:59:10.317Z,1015.12
2018-07-09T04:01:03.111Z,1015.16
2018-07-09T04:02:03.047Z,1015.13
2018-07-09T04:03:55.870Z,1015.13
2018-07-09T04:04:55.787Z,1015.14
2018-07-09T04:06:48.585Z,1015.14
2018-07-09T04:07:48.512Z,1015.14
2018-07-09T04:09:41.297Z,1015.16
2018-07-09T04:10:41.200Z,1015.16
2018-07-09T04:12:34.020Z,1015.13
2018-07-09T04:13:33.944Z,1015.12
2018-07-09T04:15:26.719Z,1015.09
2018-07-09T04:16:26.673Z,1015.10
2018-07-09T04:18:19.557Z,1015.12
2018-07-09T04:19:19.380Z,1015.11
2018-07-09T04:21:12.174Z,1015.14
2018-07-09T04:22:12.111Z,1015.09
2018-07-09T04:24:04.908Z,1015.10
2018-07-09T04:25:04.817Z,1015.10
2018-07-09T04:26:57.652Z,1015.11
2018-07-09T04:27:57.535Z,1015.12
2018-07-09T04:29:50.307Z,1015.16
2018-07-09T04:30:50.238Z,1015.13
2018-07-09T04:32:43.017Z,1015.16
2018-07-09T04:33:42.959Z,1015.16
2018-07-09T04:35:35.830Z,1015.13
2018-07-09T04:36:35.753Z,1015.14
2018-07-09T04:38:28.569Z,1015.12
2018-07-09T04:39:28.484Z,1015.14
2018-07-09T04:41:21.301Z,1015.12
2018-07-09T04:42:21.218Z,1015.09
2018-07-09T04:44:14.041Z,1015.09
2018-07-09T04:45:13.970Z,1015.13
2018-07-09T04:47:06.767Z,1015.15
2018-07-09T04:48:06.714Z,1015.15
2018-07-09T04:49:59.541Z,1015.17
2018-07-09T04:50:59.429Z,1015.17
2018-07-09T04:52:52.239Z,1015.16
2018-07-09T04:53:52.178Z,1015.11
2018-07-09T04:55:44.987Z,1015.13
2018-07-09T04:56:44.928Z,1015.11
2018-07-09T04:58:37.722Z,1015.09
2018-07-09T04:59:37.648Z,1015.12
2018-07-09T05:01:30.511Z,1015.16
2018-07-09T05:02:30.371Z,1015.16
2018-07-09T05:04:23.196Z,1015.14
2018-07-09T05:05:23.112Z,1015.14
2018-07-09T05:07:15.899Z,1015.12
2018-07-09T05:08:15.818Z,1015.05
2018-07-09T05:10:08.613Z,1015.05
2018-07-09T05:11:08.584Z,1015.08
2018-07-09T05:13:01.379Z,1015.09
2018-07-09T05:14:01.264Z,1015.11
2018-07-09T05:15:54.060Z,1015.13
2018-07-09T05:16:53.991Z,1015.13
2018-07-09T05:18:46.744Z,1015.16
2018-07-09T05:19:46.682Z,1015.14
2018-07-09T05:21:39.515Z,1015.12
2018-07-09T05:22:39.410Z,1015.12
2018-07-09T05:24:32.207Z,1015.15
2018-07-09T05:25:32.147Z,1015.14
2018-07-09T05:27:24.953Z,1015.11
2018-07-09T05:28:24.887Z,1015.13
2018-07-09T05:30:17.702Z,1015.13
2018-07-09T05:31:17.696Z,1015.15
2018-07-09T05:33:10.416Z,1015.16
2018-07-09T05:34:10.336Z,1015.16
2018-07-09T05:36:03.133Z,1015.12
2018-07-09T05:37:03.072Z,1015.09
2018-07-09T05:38:55.852Z,1015.13
2018-07-09T05:39:55.835Z,1015.13
2018-07-09T05:41:48.579Z,1015.13
2018-07-09T05:42:48.516Z,1015.14
2018-07-09T05:44:41.417Z,1015.14
2018-07-09T05:45:41.357Z,1015.10
2018-07-09T05:47:34.156Z,1015.08
2018-07-09T05:48:34.104Z,1015.03
2018-07-09T05:50:26.885Z,1015.06
2018-07-09T05:51:26.783Z,1015.06
2018-07-09T05:53:19.693Z,1015.02
2018-07-09T05:54:19.559Z,1014.99
2018-07-09T05:56:12.363Z,1014.97
2018-07-09T05:57:12.292Z,1014.95
2018-07-09T05:59:05.079Z,1014.95
2018-07-09T06:00:05.017Z,1014.97
2018-07-09T06:01:57.799Z,1014.95
2018-07-09T06:02:57.744Z,1014.93
2018-07-09T06:04:50.513Z,1014.92
2018-07-09T06:05:50.451Z,1014.87
2018-07-09T06:07:43.264Z,1014.87
2018-07-09T06:08:43.185Z,1014.85
2018-07-09T06:10:35.974Z,1014.88
2018-07-09T06:11:35.993Z,1014.88
2018-07-09T06:13:28.746Z,1014.85
2018-07-09T06:14:28.635Z,1014.86
2018-07-09T06:16:21.431Z,1014.85
2018-07-09T06:17:21.360Z,1014.82
2018-07-09T06:19:14.165Z,1014.79
2018-07-09T06:20:14.083Z,1014.81
2018-07-09T06:22:06.926Z,1014.82
2018-07-09T06:23:06.857Z,1014.92
2018-07-09T06:24:59.662Z,1014.96
2018-07-09T06:25:59.697Z,1014.98
2018-07-09T06:27:52.371Z,1015.00
2018-07-09T06:28:52.303Z,1014.95
2018-07-09T06:30:45.106Z,1014.97
2018-07-09T06:31:45.040Z,1014.97
2018-07-09T06:33:37.824Z,1014.95
2018-07-09T06:34:37.755Z,1014.97
2018-07-09T06:36:30.590Z,1014.95
2018-07-09T06:37:30.540Z,1015.00
2018-07-09T06:39:23.366Z,1015.00
2018-07-09T06:40:23.264Z,1014.98
2018-07-09T06:42:16.080Z,1014.97
2018-07-09T06:43:15.998Z,1014.94
2018-07-09T06:45:08.851Z,1014.99
2018-07-09T06:46:08.763Z,1015.03
2018-07-09T06:48:01.534Z,1015.01
2018-07-09T06:49:01.463Z,1015.04
2018-07-09T06:50:54.302Z,1015.08
2018-07-09T06:51:54.249Z,1015.02
2018-07-09T06:53:47.056Z,1015.06
2018-07-09T06:54:46.988Z,1015.06
2018-07-09T06:56:39.773Z,1015.09
2018-07-09T06:57:39.712Z,1015.09
2018-07-09T06:59:32.503Z,1015.14
2018-07-09T07:00:32.441Z,1015.08
2018-07-09T07:02:25.263Z,1015.03
2018-07-09T07:03:25.167Z,1015.03
2018-07-09T07:05:17.970Z,1014.98
2018-07-09T07:06:17.903Z,1015.00
2018-07-09T07:08:10.740Z,1015.09
2018-07-09T07:09:10.735Z,1015.06
2018-07-09T07:11:03.433Z,1015.03
2018-07-09T07:12:03.376Z,1015.03
2018-07-09T07:13:56.681Z,1015.00
2018-07-09T07:14:56.604Z,1015.02
2018-07-09T07:16:49.973Z,1015.02
2018-07-09T07:17:49.907Z,1015.05
2018-07-09T07:19:42.743Z,1015.02
2018-07-09T07:20:42.647Z,1015.05
2018-07-09T07:22:35.443Z,1015.05
2018-07-09T07:23:35.385Z,1015.06
2018-07-09T07:25:28.206Z,1015.06
2018-07-09T07:26:28.143Z,1015.06
2018-07-09T07:28:20.937Z,1015.02
2018-07-09T07:29:20.874Z,1015.05
2018-07-09T07:31:13.703Z,1015.01
2018-07-09T07:32:13.642Z,1015.01
2018-07-09T07:34:06.471Z,1015.04
2018-07-09T07:35:06.378Z,1015.03
2018-07-09T07:36:59.167Z,1015.02
2018-07-09T07:37:59.110Z,1015.03
2018-07-09T07:39:51.922Z,1014.98
2018-07-09T07:40:51.844Z,1014.97
2018-07-09T07:42:44.652Z,1014.97
2018-07-09T07:43:44.602Z,1014.95
2018-07-09T07:45:37.428Z,1014.93
2018-07-09T07:46:37.349Z,1014.93
2018-07-09T07:48:30.133Z,1014.90
2018-07-09T07:49:30.079Z,1014.92
2018-07-09T07:51:22.880Z,1014.90
2018-07-09T07:52:22.839Z,1014.92
2018-07-09T07:54:15.631Z,1014.92
2018-07-09T07:55:15.582Z,1014.89
2018-07-09T07:57:08.410Z,1014.86
2018-07-09T07:58:08.334Z,1014.91
2018-07-09T08:00:01.151Z,1014.89
2018-07-09T08:01:01.080Z,1014.84
2018-07-09T08:02:53.919Z,1014.91
2018-07-09T08:03:53.862Z,1014.88
2018-07-09T08:05:46.666Z,1014.83
2018-07-09T08:06:46.575Z,1014.83
2018-07-09T08:08:39.361Z,1014.88
2018-07-09T08:09:39.349Z,1014.84
2018-07-09T08:11:47.724Z,1014.83
2018-07-09T08:13:13.482Z,1014.84
2018-07-09T08:14:24.952Z,1014.83
2018-07-09T08:15:24.833Z,1014.88
2018-07-09T08:17:17.614Z,1014.86
2018-07-09T08:18:17.529Z,1014.81
2018-07-09T08:20:10.329Z,1014.76
2018-07-09T08:21:10.276Z,1014.75
2018-07-09T08:23:03.058Z,1014.72
2018-07-09T08:24:02.981Z,1014.73
2018-07-09T08:25:55.786Z,1014.67
2018-07-09T08:26:55.722Z,1014.66
2018-07-09T08:28:48.536Z,1014.65
2018-07-09T08:29:48.459Z,1014.65
2018-07-09T08:31:41.308Z,1014.61
2018-07-09T08:32:41.238Z,1014.57
2018-07-09T08:34:34.045Z,1014.65
2018-07-09T08:35:33.964Z,1014.71
2018-07-09T08:37:26.831Z,1014.75
2018-07-09T08:38:26.751Z,1014.70
2018-07-09T08:40:19.597Z,1014.63
2018-07-09T08:41:19.573Z,1014.69
2018-07-09T08:43:12.454Z,1014.63
2018-07-09T08:44:12.273Z,1014.67
2018-07-09T08:46:05.588Z,1014.66
2018-07-09T08:47:05.529Z,1014.65
2018-07-09T08:48:58.559Z,1014.67
2018-07-09T08:49:58.486Z,1014.65
2018-07-09T08:51:51.306Z,1014.68
2018-07-09T08:52:51.217Z,1014.67
2018-07-09T08:54:44.029Z,1014.70
2018-07-09T08:55:43.961Z,1014.68
2018-07-09T08:57:36.799Z,1014.67
2018-07-09T08:58:36.724Z,1014.68
2018-07-09T09:00:29.635Z,1014.62
2018-07-09T09:01:29.550Z,1014.64
2018-07-09T09:03:22.419Z,1014.57
2018-07-09T09:04:22.341Z,1014.60
2018-07-09T09:06:15.171Z,1014.55
2018-07-09T09:07:15.089Z,1014.57
2018-07-09T09:09:07.917Z,1014.57
2018-07-09T09:10:07.863Z,1014.61
2018-07-09T09:12:00.640Z,1014.51
2018-07-09T09:13:00.564Z,1014.52
2018-07-09T09:14:53.407Z,1014.46
2018-07-09T09:15:53.362Z,1014.54
2018-07-09T09:17:46.259Z,1014.45
2018-07-09T09:18:46.092Z,1014.43
2018-07-09T09:20:39.383Z,1014.44
2018-07-09T09:21:39.323Z,1014.46
2018-07-09T09:23:32.169Z,1014.57
2018-07-09T09:24:32.102Z,1014.53
2018-07-09T09:26:24.918Z,1014.46
2018-07-09T09:27:24.859Z,1014.51
2018-07-09T09:29:17.652Z,1014.50
2018-07-09T09:30:17.577Z,1014.53
2018-07-09T09:32:10.398Z,1014.54
2018-07-09T09:33:10.315Z,1014.58
2018-07-09T09:35:03.125Z,1014.56
2018-07-09T09:36:03.059Z,1014.61
2018-07-09T09:37:55.855Z,1014.58
2018-07-09T09:38:55.789Z,1014.60
2018-07-09T09:40:48.578Z,1014.64
2018-07-09T09:41:48.522Z,1014.59
2018-07-09T09:43:41.337Z,1014.61
2018-07-09T09:44:41.270Z,1014.59
2018-07-09T09:46:34.102Z,1014.58
2018-07-09T09:47:34.014Z,1014.61
2018-07-09T09:49:26.887Z,1014.68
2018-07-09T09:50:26.761Z,1014.57
2018-07-09T09:52:19.573Z,1014.59
2018-07-09T09:53:19.507Z,1014.58
2018-07-09T09:55:12.290Z,1014.52
2018-07-09T09:56:12.236Z,1014.53
2018-07-09T09:58:05.062Z,1014.49
2018-07-09T09:59:04.993Z,1014.54
2018-07-09T10:00:57.808Z,1014.55
2018-07-09T10:01:57.716Z,1014.56
2018-07-09T10:03:50.594Z,1014.47
2018-07-09T10:04:50.478Z,1014.49
2018-07-09T10:06:43.252Z,1014.44
2018-07-09T10:07:43.195Z,1014.51
2018-07-09T10:09:35.986Z,1014.47
2018-07-09T10:10:35.915Z,1014.52
2018-07-09T10:12:28.733Z,1014.46
2018-07-09T10:13:28.656Z,1014.45
2018-07-09T10:15:21.447Z,1014.42
2018-07-09T10:16:21.392Z,1014.45
2018-07-09T10:18:14.174Z,1014.44
2018-07-09T10:19:14.103Z,1014.38
2018-07-09T10:21:19.633Z,1014.41
2018-07-09T10:22:19.568Z,1014.32
2018-07-09T10:24:12.362Z,1014.35
2018-07-09T10:25:12.289Z,1014.31
2018-07-09T10:27:05.067Z,1014.25
2018-07-09T10:28:05.006Z,1014.28
2018-07-09T10:29:57.794Z,1014.37
2018-07-09T10:30:57.723Z,1014.26
2018-07-09T10:32:50.510Z,1014.32
2018-07-09T10:33:50.443Z,1014.25
2018-07-09T10:35:43.227Z,1014.35
2018-07-09T10:36:43.165Z,1014.28
2018-07-09T10:38:35.971Z,1014.28
2018-07-09T10:39:35.905Z,1014.27
2018-07-09T10:41:28.654Z,1014.23
2018-07-09T10:42:28.598Z,1014.23
2018-07-09T10:44:21.439Z,1014.14
2018-07-09T10:45:21.330Z,1014.09
2018-07-09T10:47:14.170Z,1014.23
2018-07-09T10:48:14.057Z,1014.17
2018-07-09T10:50:06.852Z,1014.26
2018-07-09T10:51:06.789Z,1014.22
2018-07-09T10:52:59.578Z,1014.14
2018-07-09T10:53:59.504Z,1014.15
2018-07-09T10:55:52.280Z,1014.14
2018-07-09T10:56:52.215Z,1014.08
2018-07-09T10:58:45.011Z,1014.18
2018-07-09T10:59:44.932Z,1014.14
2018-07-09T11:01:37.729Z,1014.11
2018-07-09T11:02:37.667Z,1014.11
2018-07-09T11:04:30.456Z,1014.15
2018-07-09T11:05:30.386Z,1014.11
2018-07-09T11:07:23.174Z,1014.10
2018-07-09T11:08:23.111Z,1014.05
2018-07-09T11:10:15.898Z,1014.07
2018-07-09T11:11:15.826Z,1013.98
2018-07-09T11:13:08.623Z,1014.00
2018-07-09T11:14:08.556Z,1014.04
2018-07-09T11:16:01.334Z,1013.94
2018-07-09T11:17:01.274Z,1013.96
2018-07-09T11:18:54.065Z,1013.99
2018-07-09T11:19:53.995Z,1013.95
2018-07-09T11:21:46.766Z,1014.00
2018-07-09T11:22:46.709Z,1013.98
2018-07-09T11:24:39.494Z,1014.00
2018-07-09T11:25:39.419Z,1013.96
2018-07-09T11:27:32.232Z,1013.94
2018-07-09T11:28:32.175Z,1013.92
2018-07-09T11:30:24.982Z,1013.94
2018-07-09T11:31:24.910Z,1013.96
2018-07-09T11:33:17.700Z,1013.97
2018-07-09T11:34:17.647Z,1013.93
2018-07-09T11:36:10.495Z,1013.87
2018-07-09T11:37:10.365Z,1013.93
2018-07-09T11:39:03.192Z,1013.91
2018-07-09T11:40:03.120Z,1013.91
2018-07-09T11:41:55.890Z,1013.84
2018-07-09T11:42:55.831Z,1013.80
2018-07-09T11:44:48.647Z,1013.81
2018-07-09T11:45:48.566Z,1013.81
2018-07-09T11:47:41.392Z,1013.77
2018-07-09T11:48:41.337Z,1013.79
2018-07-09T11:50:34.117Z,1013.67
2018-07-09T11:51:34.045Z,1013.81
2018-07-09T11:53:26.853Z,1013.83
2018-07-09T11:54:26.772Z,1013.81
2018-07-09T11:56:19.560Z,1013.82
2018-07-09T11:57:19.505Z,1013.89
2018-07-09T11:59:12.292Z,1013.82
2018-07-09T12:00:12.224Z,1013.86
2018-07-09T12:02:04.994Z,1013.76
2018-07-09T12:03:04.936Z,1013.77
2018-07-09T12:04:57.723Z,1013.74
2018-07-09T12:05:57.652Z,1013.73
2018-07-09T12:07:50.435Z,1013.78
2018-07-09T12:08:50.381Z,1013.80
2018-07-09T12:10:43.178Z,1013.78
2018-07-09T12:11:43.097Z,1013.76
2018-07-09T12:13:36.871Z,1013.74
2018-07-09T12:14:36.806Z,1013.73
2018-07-09T12:16:29.580Z,1013.71
2018-07-09T12:17:29.550Z,1013.76
2018-07-09T12:19:22.313Z,1013.77
2018-07-09T12:20:22.242Z,1013.72
2018-07-09T12:22:15.011Z,1013.73
2018-07-09T12:23:14.954Z,1013.71
2018-07-09T12:25:07.758Z,1013.65
2018-07-09T12:26:07.674Z,1013.63
2018-07-09T12:28:00.508Z,1013.66
2018-07-09T12:29:00.426Z,1013.63
2018-07-09T12:30:53.170Z,1013.69
2018-07-09T12:31:53.105Z,1013.67
2018-07-09T12:33:45.888Z,1013.61
2018-07-09T12:34:45.810Z,1013.70
2018-07-09T12:36:38.918Z,1013.73
2018-07-09T12:37:38.858Z,1013.71
2018-07-09T12:39:31.699Z,1013.77
2018-07-09T12:40:31.628Z,1013.73
2018-07-09T12:42:24.418Z,1013.81
2018-07-09T12:43:24.351Z,1013.76
2018-07-09T12:45:17.213Z,1013.81
2018-07-09T12:46:17.062Z,1013.83
2018-07-09T12:48:09.854Z,1013.78
2018-07-09T12:49:09.793Z,1013.79
2018-07-09T12:51:02.589Z,1013.81
2018-07-09T12:52:02.647Z,1013.82
2018-07-09T12:53:55.302Z,1013.78
2018-07-09T12:54:55.226Z,1013.80
2018-07-09T12:56:47.993Z,1013.79
2018-07-09T12:57:47.934Z,1013.75
2018-07-09T12:59:40.754Z,1013.73
2018-07-09T13:00:40.689Z,1013.83
2018-07-09T13:02:33.453Z,1013.73
2018-07-09T13:03:33.391Z,1013.76
2018-07-09T13:05:26.192Z,1013.70
2018-07-09T13:06:26.101Z,1013.77
2018-07-09T13:08:18.885Z,1013.77
2018-07-09T13:09:18.824Z,1013.65
2018-07-09T13:11:11.611Z,1013.75
2018-07-09T13:12:11.540Z,1013.76
2018-07-09T13:14:04.360Z,1013.73
2018-07-09T13:15:04.297Z,1013.74
2018-07-09T13:16:57.091Z,1013.74
2018-07-09T13:17:57.019Z,1013.75
2018-07-09T13:19:49.856Z,1013.73
2018-07-09T13:20:49.746Z,1013.70
2018-07-09T13:22:42.521Z,1013.71
2018-07-09T13:23:42.466Z,1013.70
2018-07-09T13:25:35.260Z,1013.67
2018-07-09T13:26:35.178Z,1013.67
2018-07-09T13:28:27.951Z,1013.64
2018-07-09T13:29:27.908Z,1013.64
2018-07-09T13:31:20.685Z,1013.73
2018-07-09T13:32:20.618Z,1013.66
2018-07-09T13:34:13.403Z,1013.62
2018-07-09T13:35:13.345Z,1013.61
2018-07-09T13:37:06.136Z,1013.58
2018-07-09T13:38:06.058Z,1013.57
2018-07-09T13:39:58.849Z,1013.54
2018-07-09T13:40:58.775Z,1013.52
2018-07-09T13:42:51.545Z,1013.52
2018-07-09T13:43:51.489Z,1013.52
2018-07-09T13:45:44.288Z,1013.53
2018-07-09T13:46:44.205Z,1013.51
2018-07-09T13:48:36.990Z,1013.49
2018-07-09T13:49:36.937Z,1013.46
2018-07-09T13:51:29.739Z,1013.46
2018-07-09T13:52:29.653Z,1013.48
2018-07-09T13:54:22.499Z,1013.43
2018-07-09T13:55:22.403Z,1013.39
2018-07-09T13:57:15.195Z,1013.35
2018-07-09T13:58:15.111Z,1013.40
2018-07-09T14:00:07.906Z,1013.41
2018-07-09T14:01:07.838Z,1013.34
2018-07-09T14:03:00.643Z,1013.34
2018-07-09T14:04:00.717Z,1013.32
2018-07-09T14:05:53.353Z,1013.28
2018-07-09T14:06:53.275Z,1013.27
2018-07-09T14:08:46.065Z,1013.27
2018-07-09T14:09:46.015Z,1013.25
2018-07-09T14:11:38.861Z,1013.25
2018-07-09T14:12:38.772Z,1013.21
2018-07-09T14:14:31.558Z,1013.17
2018-07-09T14:15:31.488Z,1013.18
2018-07-09T14:17:24.274Z,1013.20
2018-07-09T14:18:24.213Z,1013.22
2018-07-09T14:20:16.992Z,1013.20
2018-07-09T14:21:16.928Z,1013.22
2018-07-09T14:23:09.752Z,1013.19
2018-07-09T14:24:09.628Z,1013.13
2018-07-09T14:26:02.424Z,1013.07
2018-07-09T14:27:02.367Z,1013.05
2018-07-09T14:28:55.131Z,1012.99
2018-07-09T14:29:55.067Z,1013.03
2018-07-09T14:31:47.920Z,1013.03
2018-07-09T14:32:47.854Z,1013.02
2018-07-09T14:34:40.628Z,1013.02
2018-07-09T14:35:40.562Z,1013.02
2018-07-09T14:37:33.359Z,1013.01
2018-07-09T14:38:33.279Z,1012.98
2018-07-09T14:40:26.085Z,1012.94
2018-07-09T14:41:26.027Z,1012.91
2018-07-09T14:43:18.819Z,1012.92
2018-07-09T14:44:18.744Z,1012.89
2018-07-09T14:46:11.535Z,1012.82
2018-07-09T14:47:11.476Z,1012.81
2018-07-09T14:49:04.254Z,1012.80
2018-07-09T14:50:04.197Z,1012.79
2018-07-09T14:51:57.006Z,1012.77
2018-07-09T14:52:56.930Z,1012.76
2018-07-09T14:54:49.714Z,1012.80
2018-07-09T14:55:49.661Z,1012.80
2018-07-09T14:57:42.445Z,1012.80
2018-07-09T14:58:42.375Z,1012.73
2018-07-09T15:00:35.146Z,1012.68
2018-07-09T15:01:35.087Z,1012.69
2018-07-09T15:03:27.905Z,1012.70
2018-07-09T15:04:27.869Z,1012.67
2018-07-09T15:06:20.640Z,1012.62
2018-07-09T15:07:20.567Z,1012.71
2018-07-09T15:09:13.366Z,1012.56
2018-07-09T15:10:13.287Z,1012.55
2018-07-09T15:12:06.087Z,1012.62
2018-07-09T15:13:06.015Z,1012.54
2018-07-09T15:14:58.816Z,1012.47
2018-07-09T15:15:58.761Z,1012.48
2018-07-09T15:17:51.559Z,1012.55
2018-07-09T15:18:51.482Z,1012.48
2018-07-09T15:20:44.249Z,1012.51
2018-07-09T15:21:44.188Z,1012.49
2018-07-09T15:23:36.996Z,1012.47
2018-07-09T15:24:36.928Z,1012.50
2018-07-09T15:26:29.707Z,1012.47
2018-07-09T15:27:29.630Z,1012.45
2018-07-09T15:29:22.433Z,1012.41
2018-07-09T15:30:22.376Z,1012.39
2018-07-09T15:32:15.155Z,1012.30
2018-07-09T15:33:15.080Z,1012.20
2018-07-09T15:35:07.847Z,1012.25
2018-07-09T15:36:07.797Z,1012.19
2018-07-09T15:38:00.590Z,1012.16
2018-07-09T15:39:00.518Z,1012.11
2018-07-09T15:40:53.320Z,1012.14
2018-07-09T15:41:53.257Z,1012.16
2018-07-09T15:43:46.039Z,1012.12
2018-07-09T15:44:45.966Z,1012.06
2018-07-09T15:46:38.759Z,1012.01
2018-07-09T15:47:38.686Z,1011.95
2018-07-09T15:49:31.497Z,1011.97
2018-07-09T15:50:31.438Z,1011.98
2018-07-09T15:52:24.212Z,1011.95
2018-07-09T15:53:24.143Z,1011.95
2018-07-09T15:55:16.918Z,1011.93
2018-07-09T15:56:16.858Z,1011.91
2018-07-09T15:58:09.641Z,1011.89
2018-07-09T15:59:09.571Z,1011.82
2018-07-09T16:01:02.349Z,1011.89
2018-07-09T16:02:02.331Z,1011.88
2018-07-09T16:03:55.093Z,1011.83
2018-07-09T16:04:55.061Z,1011.82
2018-07-09T16:06:47.795Z,1011.82
2018-07-09T16:07:47.723Z,1011.81
2018-07-09T16:09:40.503Z,1011.76
2018-07-09T16:10:40.441Z,1011.79
2018-07-09T16:12:33.245Z,1011.79
2018-07-09T16:13:33.170Z,1011.75
2018-07-09T16:15:25.940Z,1011.74
2018-07-09T16:16:25.892Z,1011.74
2018-07-09T16:18:18.673Z,1011.73
2018-07-09T16:19:18.609Z,1011.72
2018-07-09T16:21:11.396Z,1011.67
2018-07-09T16:22:11.335Z,1011.70
2018-07-09T16:24:04.125Z,1011.67
2018-07-09T16:25:04.048Z,1011.62
2018-07-09T16:26:56.837Z,1011.57
2018-07-09T16:27:56.764Z,1011.57
2018-07-09T16:29:49.550Z,1011.62
2018-07-09T16:30:49.497Z,1011.57
2018-07-09T16:32:42.266Z,1011.55
2018-07-09T16:33:42.188Z,1011.53
2018-07-09T16:35:34.982Z,1011.50
2018-07-09T16:36:34.915Z,1011.54
2018-07-09T16:38:27.704Z,1011.50
2018-07-09T16:39:27.627Z,1011.49
2018-07-09T16:41:20.448Z,1011.51
2018-07-09T16:42:20.380Z,1011.49
2018-07-09T16:44:13.148Z,1011.46
2018-07-09T16:45:13.075Z,1011.45
2018-07-09T16:47:05.932Z,1011.48
2018-07-09T16:48:05.790Z,1011.48
2018-07-09T16:49:58.568Z,1011.46
2018-07-09T16:50:58.504Z,1011.44
2018-07-09T16:52:51.334Z,1011.48
2018-07-09T16:53:51.266Z,1011.45
2018-07-09T16:55:44.032Z,1011.40
2018-07-09T16:56:43.971Z,1011.38
2018-07-09T16:58:36.768Z,1011.35
2018-07-09T16:59:36.694Z,1011.39
2018-07-09T17:01:29.473Z,1011.33
2018-07-09T17:02:29.413Z,1011.32
2018-07-09T17:04:22.211Z,1011.30
2018-07-09T17:05:22.127Z,1011.28
2018-07-09T17:07:14.917Z,1011.27
2018-07-09T17:08:14.843Z,1011.24
2018-07-09T17:10:07.627Z,1011.24
2018-07-09T17:11:07.588Z,1011.25
2018-07-09T17:13:00.354Z,1011.24
2018-07-09T17:14:00.280Z,1011.21
2018-07-09T17:15:53.066Z,1011.20
2018-07-09T17:16:53.008Z,1011.19
2018-07-09T17:18:45.819Z,1011.21
2018-07-09T17:19:45.721Z,1011.15
2018-07-09T17:21:38.507Z,1011.20
2018-07-09T17:22:38.444Z,1011.18
2018-07-09T17:24:31.222Z,1011.36